sensor_id;sensor_type;location;lat;lon;timestamp;temperature;humidity
48579;DHT22;34357;51.948;6.132;2023-05-15T00:01:49;13.20;84.00
48579;DHT22;34357;51.948;6.132;2023-05-15T00:04:15;13.20;84.20
48579;DHT22;34357;51.948;6.132;2023-05-15T00:06:41;13.20;84.10
48579;DHT22;34357;51.948;6.132;2023-05-15T00:09:07;13.20;84.10
48579;DHT22;34357;51.948;6.132;2023-05-15T00:11:33;13.00;83.70
48579;DHT22;34357;51.948;6.132;2023-05-15T00:13:59;13.00;84.40
48579;DHT22;34357;51.948;6.132;2023-05-15T00:16:25;13.00;84.50
48579;DHT22;34357;51.948;6.132;2023-05-15T00:18:50;13.10;84.10
48579;DHT22;34357;51.948;6.132;2023-05-15T00:21:16;12.90;84.30
48579;DHT22;34357;51.948;6.132;2023-05-15T00:23:42;12.90;84.30
48579;DHT22;34357;51.948;6.132;2023-05-15T00:26:07;12.90;84.70
48579;DHT22;34357;51.948;6.132;2023-05-15T00:28:33;12.80;84.80
48579;DHT22;34357;51.948;6.132;2023-05-15T00:30:59;12.80;84.80
48579;DHT22;34357;51.948;6.132;2023-05-15T00:33:25;12.60;85.00
48579;DHT22;34357;51.948;6.132;2023-05-15T00:35:50;12.70;85.20
48579;DHT22;34357;51.948;6.132;2023-05-15T00:38:16;12.70;84.80
48579;DHT22;34357;51.948;6.132;2023-05-15T00:40:42;12.70;85.10
48579;DHT22;34357;51.948;6.132;2023-05-15T00:43:09;12.70;85.20
48579;DHT22;34357;51.948;6.132;2023-05-15T00:45:38;12.60;85.00
48579;DHT22;34357;51.948;6.132;2023-05-15T00:48:10;12.60;85.40
48579;DHT22;34357;51.948;6.132;2023-05-15T00:50:38;12.60;85.20
48579;DHT22;34357;51.948;6.132;2023-05-15T00:53:06;12.50;85.40
48579;DHT22;34357;51.948;6.132;2023-05-15T00:55:32;12.60;85.00
48579;DHT22;34357;51.948;6.132;2023-05-15T00:58:00;12.50;85.40
48579;DHT22;34357;51.948;6.132;2023-05-15T01:00:26;12.50;85.30
48579;DHT22;34357;51.948;6.132;2023-05-15T01:02:53;12.50;85.70
48579;DHT22;34357;51.948;6.132;2023-05-15T01:05:19;12.50;85.40
48579;DHT22;34357;51.948;6.132;2023-05-15T01:07:51;12.40;84.80
48579;DHT22;34357;51.948;6.132;2023-05-15T01:10:21;12.40;85.10
48579;DHT22;34357;51.948;6.132;2023-05-15T01:12:49;12.30;85.50
48579;DHT22;34357;51.948;6.132;2023-05-15T01:15:18;12.40;85.40
48579;DHT22;34357;51.948;6.132;2023-05-15T01:17:44;12.40;85.20
48579;DHT22;34357;51.948;6.132;2023-05-15T01:20:10;12.30;84.90
48579;DHT22;34357;51.948;6.132;2023-05-15T01:22:50;12.30;85.30
48579;DHT22;34357;51.948;6.132;2023-05-15T01:28:07;12.20;85.60
48579;DHT22;34357;51.948;6.132;2023-05-15T01:30:35;12.10;85.50
48579;DHT22;34357;51.948;6.132;2023-05-15T01:41:25;12.10;85.30
48579;DHT22;34357;51.948;6.132;2023-05-15T01:43:55;12.00;85.40
48579;DHT22;34357;51.948;6.132;2023-05-15T01:46:22;11.90;86.00
48579;DHT22;34357;51.948;6.132;2023-05-15T01:48:50;11.90;86.00
48579;DHT22;34357;51.948;6.132;2023-05-15T01:51:18;11.80;86.10
48579;DHT22;34357;51.948;6.132;2023-05-15T01:53:45;11.80;86.50
48579;DHT22;34357;51.948;6.132;2023-05-15T01:56:13;11.90;86.60
48579;DHT22;34357;51.948;6.132;2023-05-15T01:58:39;11.80;86.20
48579;DHT22;34357;51.948;6.132;2023-05-15T02:01:07;11.70;85.90
48579;DHT22;34357;51.948;6.132;2023-05-15T02:03:34;11.70;86.70
48579;DHT22;34357;51.948;6.132;2023-05-15T02:06:02;11.70;86.60
48579;DHT22;34357;51.948;6.132;2023-05-15T02:08:30;11.80;86.10
48579;DHT22;34357;51.948;6.132;2023-05-15T02:10:58;11.70;85.80
48579;DHT22;34357;51.948;6.132;2023-05-15T02:13:25;11.60;86.60
48579;DHT22;34357;51.948;6.132;2023-05-15T02:15:52;11.60;86.40
48579;DHT22;34357;51.948;6.132;2023-05-15T02:18:18;11.60;86.20
48579;DHT22;34357;51.948;6.132;2023-05-15T02:20:44;11.50;86.60
48579;DHT22;34357;51.948;6.132;2023-05-15T02:23:10;11.60;86.80
48579;DHT22;34357;51.948;6.132;2023-05-15T02:28:33;11.60;86.10
48579;DHT22;34357;51.948;6.132;2023-05-15T02:31:10;11.60;85.90
48579;DHT22;34357;51.948;6.132;2023-05-15T02:36:39;11.40;86.30
48579;DHT22;34357;51.948;6.132;2023-05-15T02:39:06;11.50;86.70
48579;DHT22;34357;51.948;6.132;2023-05-15T02:41:35;11.50;86.30
48579;DHT22;34357;51.948;6.132;2023-05-15T02:44:01;11.40;86.10
48579;DHT22;34357;51.948;6.132;2023-05-15T02:46:29;11.40;85.80
48579;DHT22;34357;51.948;6.132;2023-05-15T02:48:55;11.40;85.70
48579;DHT22;34357;51.948;6.132;2023-05-15T02:51:21;11.30;85.90
48579;DHT22;34357;51.948;6.132;2023-05-15T02:53:48;11.20;85.40
48579;DHT22;34357;51.948;6.132;2023-05-15T02:56:14;11.20;85.40
48579;DHT22;34357;51.948;6.132;2023-05-15T02:58:40;11.20;85.50
48579;DHT22;34357;51.948;6.132;2023-05-15T03:01:06;11.30;85.00
48579;DHT22;34357;51.948;6.132;2023-05-15T03:03:42;11.20;84.90
48579;DHT22;34357;51.948;6.132;2023-05-15T03:06:08;11.10;85.00
48579;DHT22;34357;51.948;6.132;2023-05-15T03:08:34;11.10;85.00
48579;DHT22;34357;51.948;6.132;2023-05-15T03:11:00;11.10;85.10
48579;DHT22;34357;51.948;6.132;2023-05-15T03:13:26;11.10;84.90
48579;DHT22;34357;51.948;6.132;2023-05-15T03:15:51;11.00;84.90
48579;DHT22;34357;51.948;6.132;2023-05-15T03:18:17;11.00;84.80
48579;DHT22;34357;51.948;6.132;2023-05-15T03:20:44;10.90;85.00
48579;DHT22;34357;51.948;6.132;2023-05-15T03:23:10;10.80;85.50
48579;DHT22;34357;51.948;6.132;2023-05-15T03:25:35;10.80;85.80
48579;DHT22;34357;51.948;6.132;2023-05-15T03:28:01;10.80;85.60
48579;DHT22;34357;51.948;6.132;2023-05-15T03:30:28;10.70;85.90
48579;DHT22;34357;51.948;6.132;2023-05-15T03:32:53;10.70;85.70
48579;DHT22;34357;51.948;6.132;2023-05-15T03:35:21;10.60;85.80
48579;DHT22;34357;51.948;6.132;2023-05-15T03:37:47;10.60;86.20
48579;DHT22;34357;51.948;6.132;2023-05-15T03:40:13;10.60;86.50
48579;DHT22;34357;51.948;6.132;2023-05-15T03:42:39;10.60;86.70
48579;DHT22;34357;51.948;6.132;2023-05-15T03:45:05;10.70;86.40
48579;DHT22;34357;51.948;6.132;2023-05-15T03:47:31;10.70;86.30
48579;DHT22;34357;51.948;6.132;2023-05-15T03:49:57;10.80;86.60
48579;DHT22;34357;51.948;6.132;2023-05-15T03:52:23;10.70;86.10
48579;DHT22;34357;51.948;6.132;2023-05-15T03:54:49;10.70;86.20
48579;DHT22;34357;51.948;6.132;2023-05-15T03:57:15;10.70;86.40
48579;DHT22;34357;51.948;6.132;2023-05-15T03:59:40;10.70;86.10
48579;DHT22;34357;51.948;6.132;2023-05-15T04:02:06;10.70;86.20
48579;DHT22;34357;51.948;6.132;2023-05-15T04:04:32;10.70;86.50
48579;DHT22;34357;51.948;6.132;2023-05-15T04:06:58;10.70;86.10
48579;DHT22;34357;51.948;6.132;2023-05-15T04:09:25;10.60;86.00
48579;DHT22;34357;51.948;6.132;2023-05-15T04:11:50;10.70;86.10
48579;DHT22;34357;51.948;6.132;2023-05-15T04:14:16;10.70;85.80
48579;DHT22;34357;51.948;6.132;2023-05-15T04:16:42;10.70;86.00
48579;DHT22;34357;51.948;6.132;2023-05-15T04:19:07;10.70;86.30
48579;DHT22;34357;51.948;6.132;2023-05-15T04:21:33;10.70;86.20
48579;DHT22;34357;51.948;6.132;2023-05-15T04:23:59;10.70;86.30
48579;DHT22;34357;51.948;6.132;2023-05-15T04:26:24;10.70;86.60
48579;DHT22;34357;51.948;6.132;2023-05-15T04:28:50;10.70;86.80
48579;DHT22;34357;51.948;6.132;2023-05-15T04:31:16;10.70;87.10
48579;DHT22;34357;51.948;6.132;2023-05-15T04:33:42;10.70;87.20
48579;DHT22;34357;51.948;6.132;2023-05-15T04:36:08;10.80;87.20
48579;DHT22;34357;51.948;6.132;2023-05-15T04:38:35;10.80;87.10
48579;DHT22;34357;51.948;6.132;2023-05-15T04:41:00;10.90;87.30
48579;DHT22;34357;51.948;6.132;2023-05-15T04:43:26;11.00;87.70
48579;DHT22;34357;51.948;6.132;2023-05-15T04:45:52;11.10;87.50
48579;DHT22;34357;51.948;6.132;2023-05-15T04:48:17;11.10;87.40
48579;DHT22;34357;51.948;6.132;2023-05-15T04:50:44;11.20;87.70
48579;DHT22;34357;51.948;6.132;2023-05-15T04:53:09;11.30;87.60
48579;DHT22;34357;51.948;6.132;2023-05-15T04:55:35;11.40;87.70
48579;DHT22;34357;51.948;6.132;2023-05-15T04:58:01;11.50;87.60
48579;DHT22;34357;51.948;6.132;2023-05-15T05:00:27;11.50;87.50
48579;DHT22;34357;51.948;6.132;2023-05-15T05:02:53;11.50;87.50
48579;DHT22;34357;51.948;6.132;2023-05-15T05:05:19;11.60;87.40
48579;DHT22;34357;51.948;6.132;2023-05-15T05:07:45;11.70;87.30
48579;DHT22;34357;51.948;6.132;2023-05-15T05:10:11;11.60;87.40
48579;DHT22;34357;51.948;6.132;2023-05-15T05:12:36;11.60;87.70
48579;DHT22;34357;51.948;6.132;2023-05-15T05:15:03;11.70;87.50
48579;DHT22;34357;51.948;6.132;2023-05-15T05:17:28;11.80;87.80
48579;DHT22;34357;51.948;6.132;2023-05-15T05:19:55;11.80;87.80
48579;DHT22;34357;51.948;6.132;2023-05-15T05:22:21;11.90;87.70
48579;DHT22;34357;51.948;6.132;2023-05-15T05:24:46;11.90;88.00
48579;DHT22;34357;51.948;6.132;2023-05-15T05:27:12;11.90;87.90
48579;DHT22;34357;51.948;6.132;2023-05-15T05:29:38;12.00;88.00
48579;DHT22;34357;51.948;6.132;2023-05-15T05:32:05;12.00;87.80
48579;DHT22;34357;51.948;6.132;2023-05-15T05:34:31;12.10;87.90
48579;DHT22;34357;51.948;6.132;2023-05-15T05:36:57;12.10;88.00
48579;DHT22;34357;51.948;6.132;2023-05-15T05:39:23;12.20;87.90
48579;DHT22;34357;51.948;6.132;2023-05-15T05:41:49;12.00;87.90
48579;DHT22;34357;51.948;6.132;2023-05-15T05:44:14;12.20;88.10
48579;DHT22;34357;51.948;6.132;2023-05-15T05:46:40;12.30;88.20
48579;DHT22;34357;51.948;6.132;2023-05-15T05:49:06;12.20;87.80
48579;DHT22;34357;51.948;6.132;2023-05-15T05:51:34;12.20;87.70
48579;DHT22;34357;51.948;6.132;2023-05-15T05:54:01;12.20;87.70
48579;DHT22;34357;51.948;6.132;2023-05-15T05:56:27;12.20;87.80
48579;DHT22;34357;51.948;6.132;2023-05-15T05:58:53;12.20;88.10
48579;DHT22;34357;51.948;6.132;2023-05-15T06:01:19;12.20;87.60
48579;DHT22;34357;51.948;6.132;2023-05-15T06:03:46;12.20;87.70
48579;DHT22;34357;51.948;6.132;2023-05-15T06:06:12;12.10;87.70
48579;DHT22;34357;51.948;6.132;2023-05-15T06:08:38;12.10;87.80
48579;DHT22;34357;51.948;6.132;2023-05-15T06:11:04;12.10;87.80
48579;DHT22;34357;51.948;6.132;2023-05-15T06:13:30;12.30;87.90
48579;DHT22;34357;51.948;6.132;2023-05-15T06:15:55;12.40;87.10
48579;DHT22;34357;51.948;6.132;2023-05-15T06:18:21;12.40;87.30
48579;DHT22;34357;51.948;6.132;2023-05-15T06:20:47;12.50;87.30
48579;DHT22;34357;51.948;6.132;2023-05-15T06:23:12;12.80;86.50
48579;DHT22;34357;51.948;6.132;2023-05-15T06:25:38;12.90;85.30
48579;DHT22;34357;51.948;6.132;2023-05-15T06:28:04;13.10;84.80
48579;DHT22;34357;51.948;6.132;2023-05-15T06:30:30;13.30;84.50
48579;DHT22;34357;51.948;6.132;2023-05-15T06:32:55;13.30;84.50
48579;DHT22;34357;51.948;6.132;2023-05-15T06:35:21;13.40;83.80
48579;DHT22;34357;51.948;6.132;2023-05-15T06:37:50;13.60;83.30
48579;DHT22;34357;51.948;6.132;2023-05-15T06:40:17;13.60;82.80
48579;DHT22;34357;51.948;6.132;2023-05-15T06:42:43;14.10;82.20
48579;DHT22;34357;51.948;6.132;2023-05-15T06:45:09;14.10;81.20
48579;DHT22;34357;51.948;6.132;2023-05-15T06:47:34;14.20;79.90
48579;DHT22;34357;51.948;6.132;2023-05-15T06:50:00;14.50;80.90
48579;DHT22;34357;51.948;6.132;2023-05-15T06:52:26;14.70;79.10
48579;DHT22;34357;51.948;6.132;2023-05-15T06:54:52;15.30;78.60
48579;DHT22;34357;51.948;6.132;2023-05-15T06:57:18;15.70;76.40
48579;DHT22;34357;51.948;6.132;2023-05-15T06:59:44;16.00;75.30
48579;DHT22;34357;51.948;6.132;2023-05-15T07:02:10;16.10;74.50
48579;DHT22;34357;51.948;6.132;2023-05-15T07:04:36;16.20;73.10
48579;DHT22;34357;51.948;6.132;2023-05-15T07:07:01;15.70;72.70
48579;DHT22;34357;51.948;6.132;2023-05-15T07:09:27;16.20;73.70
48579;DHT22;34357;51.948;6.132;2023-05-15T07:11:53;16.40;72.10
48579;DHT22;34357;51.948;6.132;2023-05-15T07:14:19;15.60;74.90
48579;DHT22;34357;51.948;6.132;2023-05-15T07:16:44;15.70;75.00
48579;DHT22;34357;51.948;6.132;2023-05-15T07:19:11;15.70;74.00
48579;DHT22;34357;51.948;6.132;2023-05-15T07:21:38;15.90;73.30
48579;DHT22;34357;51.948;6.132;2023-05-15T07:24:04;16.50;71.80
48579;DHT22;34357;51.948;6.132;2023-05-15T07:26:30;16.90;71.60
48579;DHT22;34357;51.948;6.132;2023-05-15T07:28:57;16.90;72.40
48579;DHT22;34357;51.948;6.132;2023-05-15T07:31:23;16.90;71.10
48579;DHT22;34357;51.948;6.132;2023-05-15T07:33:49;17.70;68.10
48579;DHT22;34357;51.948;6.132;2023-05-15T07:36:15;16.70;69.20
48579;DHT22;34357;51.948;6.132;2023-05-15T07:38:41;16.70;70.80
48579;DHT22;34357;51.948;6.132;2023-05-15T07:41:07;16.90;70.30
48579;DHT22;34357;51.948;6.132;2023-05-15T07:43:33;17.30;68.20
48579;DHT22;34357;51.948;6.132;2023-05-15T07:45:59;17.80;66.90
48579;DHT22;34357;51.948;6.132;2023-05-15T07:48:24;17.60;65.80
48579;DHT22;34357;51.948;6.132;2023-05-15T07:50:50;17.90;67.30
48579;DHT22;34357;51.948;6.132;2023-05-15T07:53:16;18.40;66.80
48579;DHT22;34357;51.948;6.132;2023-05-15T07:55:43;18.30;65.20
48579;DHT22;34357;51.948;6.132;2023-05-15T07:58:10;18.20;63.80
48579;DHT22;34357;51.948;6.132;2023-05-15T08:00:36;18.10;64.50
48579;DHT22;34357;51.948;6.132;2023-05-15T08:03:02;18.20;64.40
48579;DHT22;34357;51.948;6.132;2023-05-15T08:05:28;17.80;64.90
48579;DHT22;34357;51.948;6.132;2023-05-15T08:07:55;17.50;64.70
48579;DHT22;34357;51.948;6.132;2023-05-15T08:10:21;18.00;63.90
48579;DHT22;34357;51.948;6.132;2023-05-15T08:12:47;18.60;63.30
48579;DHT22;34357;51.948;6.132;2023-05-15T08:15:13;19.10;61.10
48579;DHT22;34357;51.948;6.132;2023-05-15T08:17:39;18.90;61.20
48579;DHT22;34357;51.948;6.132;2023-05-15T08:20:06;19.10;62.10
48579;DHT22;34357;51.948;6.132;2023-05-15T08:22:32;19.20;61.50
48579;DHT22;34357;51.948;6.132;2023-05-15T08:24:58;19.10;60.60
48579;DHT22;34357;51.948;6.132;2023-05-15T08:27:25;18.90;62.10
48579;DHT22;34357;51.948;6.132;2023-05-15T08:29:51;19.10;62.90
48579;DHT22;34357;51.948;6.132;2023-05-15T08:32:18;19.30;63.00
48579;DHT22;34357;51.948;6.132;2023-05-15T08:34:44;19.10;59.30
48579;DHT22;34357;51.948;6.132;2023-05-15T08:37:10;19.00;61.60
48579;DHT22;34357;51.948;6.132;2023-05-15T08:39:36;18.50;62.50
48579;DHT22;34357;51.948;6.132;2023-05-15T08:44:30;18.20;62.30
48579;DHT22;34357;51.948;6.132;2023-05-15T08:46:57;18.60;62.50
48579;DHT22;34357;51.948;6.132;2023-05-15T08:52:13;18.80;61.30
48579;DHT22;34357;51.948;6.132;2023-05-15T08:54:40;18.50;63.40
48579;DHT22;34357;51.948;6.132;2023-05-15T08:57:06;18.50;62.80
48579;DHT22;34357;51.948;6.132;2023-05-15T08:59:33;19.30;60.00
48579;DHT22;34357;51.948;6.132;2023-05-15T09:01:59;19.60;57.50
48579;DHT22;34357;51.948;6.132;2023-05-15T09:04:24;19.90;56.40
48579;DHT22;34357;51.948;6.132;2023-05-15T09:06:50;19.70;57.70
48579;DHT22;34357;51.948;6.132;2023-05-15T09:09:17;19.70;56.50
48579;DHT22;34357;51.948;6.132;2023-05-15T09:11:45;20.10;54.70
48579;DHT22;34357;51.948;6.132;2023-05-15T09:14:11;20.20;54.40
48579;DHT22;34357;51.948;6.132;2023-05-15T09:16:37;20.00;56.40
48579;DHT22;34357;51.948;6.132;2023-05-15T09:19:04;19.70;58.20
48579;DHT22;34357;51.948;6.132;2023-05-15T09:21:31;19.70;58.10
48579;DHT22;34357;51.948;6.132;2023-05-15T09:24:19;19.40;58.60
48579;DHT22;34357;51.948;6.132;2023-05-15T09:27:03;19.60;58.20
48579;DHT22;34357;51.948;6.132;2023-05-15T09:29:30;19.60;57.50
48579;DHT22;34357;51.948;6.132;2023-05-15T09:32:08;19.30;57.80
48579;DHT22;34357;51.948;6.132;2023-05-15T09:34:39;19.40;58.10
48579;DHT22;34357;51.948;6.132;2023-05-15T09:37:07;19.80;58.00
48579;DHT22;34357;51.948;6.132;2023-05-15T09:39:40;20.30;54.50
48579;DHT22;34357;51.948;6.132;2023-05-15T09:42:08;20.00;55.00
48579;DHT22;34357;51.948;6.132;2023-05-15T09:44:34;20.50;55.80
48579;DHT22;34357;51.948;6.132;2023-05-15T09:47:01;20.90;54.90
48579;DHT22;34357;51.948;6.132;2023-05-15T09:49:28;20.60;55.80
48579;DHT22;34357;51.948;6.132;2023-05-15T09:51:57;20.90;56.20
48579;DHT22;34357;51.948;6.132;2023-05-15T09:54:25;19.90;55.10
48579;DHT22;34357;51.948;6.132;2023-05-15T09:56:52;19.90;59.20
48579;DHT22;34357;51.948;6.132;2023-05-15T09:59:19;20.50;56.80
48579;DHT22;34357;51.948;6.132;2023-05-15T10:01:49;20.80;54.70
48579;DHT22;34357;51.948;6.132;2023-05-15T10:04:15;20.40;57.50
48579;DHT22;34357;51.948;6.132;2023-05-15T10:06:44;20.30;56.40
48579;DHT22;34357;51.948;6.132;2023-05-15T10:09:10;20.70;56.10
48579;DHT22;34357;51.948;6.132;2023-05-15T10:11:39;20.50;55.40
48579;DHT22;34357;51.948;6.132;2023-05-15T10:14:07;20.60;55.90
48579;DHT22;34357;51.948;6.132;2023-05-15T10:16:34;20.00;57.00
48579;DHT22;34357;51.948;6.132;2023-05-15T10:19:11;20.60;57.90
48579;DHT22;34357;51.948;6.132;2023-05-15T10:21:40;20.70;56.90
48579;DHT22;34357;51.948;6.132;2023-05-15T10:24:07;20.20;56.70
48579;DHT22;34357;51.948;6.132;2023-05-15T10:26:42;20.20;55.90
48579;DHT22;34357;51.948;6.132;2023-05-15T10:29:10;20.70;58.10
48579;DHT22;34357;51.948;6.132;2023-05-15T10:31:35;20.30;56.70
48579;DHT22;34357;51.948;6.132;2023-05-15T10:34:03;20.50;59.20
48579;DHT22;34357;51.948;6.132;2023-05-15T10:36:30;20.20;56.70
48579;DHT22;34357;51.948;6.132;2023-05-15T10:38:58;20.30;58.60
48579;DHT22;34357;51.948;6.132;2023-05-15T10:41:27;20.20;58.30
48579;DHT22;34357;51.948;6.132;2023-05-15T10:43:54;19.90;59.40
48579;DHT22;34357;51.948;6.132;2023-05-15T10:46:22;19.50;60.10
48579;DHT22;34357;51.948;6.132;2023-05-15T10:48:49;19.10;60.10
48579;DHT22;34357;51.948;6.132;2023-05-15T10:51:27;19.20;61.80
48579;DHT22;34357;51.948;6.132;2023-05-15T10:53:54;19.70;58.30
48579;DHT22;34357;51.948;6.132;2023-05-15T10:56:31;19.90;58.00
48579;DHT22;34357;51.948;6.132;2023-05-15T10:59:04;19.80;55.80
48579;DHT22;34357;51.948;6.132;2023-05-15T11:01:33;20.00;59.50
48579;DHT22;34357;51.948;6.132;2023-05-15T11:04:16;20.20;55.20
48579;DHT22;34357;51.948;6.132;2023-05-15T11:06:44;20.70;54.30
48579;DHT22;34357;51.948;6.132;2023-05-15T11:09:37;21.00;55.70
48579;DHT22;34357;51.948;6.132;2023-05-15T11:12:04;21.00;54.00
48579;DHT22;34357;51.948;6.132;2023-05-15T11:14:38;21.10;51.00
48579;DHT22;34357;51.948;6.132;2023-05-15T11:17:08;20.80;51.90
48579;DHT22;34357;51.948;6.132;2023-05-15T11:19:53;20.50;51.40
48579;DHT22;34357;51.948;6.132;2023-05-15T11:22:24;20.20;53.40
48579;DHT22;34357;51.948;6.132;2023-05-15T11:25:03;19.90;53.90
48579;DHT22;34357;51.948;6.132;2023-05-15T11:27:44;20.00;52.80
48579;DHT22;34357;51.948;6.132;2023-05-15T11:37:45;19.70;55.80
48579;DHT22;34357;51.948;6.132;2023-05-15T11:40:13;19.70;53.90
48579;DHT22;34357;51.948;6.132;2023-05-15T11:42:40;19.80;50.90
48579;DHT22;34357;51.948;6.132;2023-05-15T11:45:09;19.30;54.00
48579;DHT22;34357;51.948;6.132;2023-05-15T11:47:36;19.60;53.20
48579;DHT22;34357;51.948;6.132;2023-05-15T11:50:03;19.60;54.40
48579;DHT22;34357;51.948;6.132;2023-05-15T11:52:31;19.10;54.60
48579;DHT22;34357;51.948;6.132;2023-05-15T11:54:57;19.30;53.30
48579;DHT22;34357;51.948;6.132;2023-05-15T11:57:24;19.40;52.10
48579;DHT22;34357;51.948;6.132;2023-05-15T11:59:53;19.40;52.40
48579;DHT22;34357;51.948;6.132;2023-05-15T12:02:20;19.40;53.40
48579;DHT22;34357;51.948;6.132;2023-05-15T12:04:48;19.50;54.30
48579;DHT22;34357;51.948;6.132;2023-05-15T12:07:14;19.70;54.40
48579;DHT22;34357;51.948;6.132;2023-05-15T12:09:41;19.70;54.60
48579;DHT22;34357;51.948;6.132;2023-05-15T12:12:12;19.60;51.60
48579;DHT22;34357;51.948;6.132;2023-05-15T12:14:38;19.30;51.40
48579;DHT22;34357;51.948;6.132;2023-05-15T12:17:05;19.30;52.70
48579;DHT22;34357;51.948;6.132;2023-05-15T12:19:33;19.10;52.90
48579;DHT22;34357;51.948;6.132;2023-05-15T12:21:59;18.90;55.50
48579;DHT22;34357;51.948;6.132;2023-05-15T12:24:25;18.90;55.20
48579;DHT22;34357;51.948;6.132;2023-05-15T12:26:51;19.10;57.40
48579;DHT22;34357;51.948;6.132;2023-05-15T12:29:17;19.30;55.90
48579;DHT22;34357;51.948;6.132;2023-05-15T12:31:43;19.10;55.70
48579;DHT22;34357;51.948;6.132;2023-05-15T12:34:09;18.90;59.20
48579;DHT22;34357;51.948;6.132;2023-05-15T12:36:35;19.20;58.30
48579;DHT22;34357;51.948;6.132;2023-05-15T12:39:06;19.10;58.00
48579;DHT22;34357;51.948;6.132;2023-05-15T12:41:32;19.40;58.90
48579;DHT22;34357;51.948;6.132;2023-05-15T12:43:58;19.70;58.60
48579;DHT22;34357;51.948;6.132;2023-05-15T12:46:24;19.40;57.80
48579;DHT22;34357;51.948;6.132;2023-05-15T12:48:56;19.20;58.40
48579;DHT22;34357;51.948;6.132;2023-05-15T12:51:22;19.30;59.80
48579;DHT22;34357;51.948;6.132;2023-05-15T12:53:47;19.30;59.10
48579;DHT22;34357;51.948;6.132;2023-05-15T12:56:16;19.10;60.10
48579;DHT22;34357;51.948;6.132;2023-05-15T12:58:42;18.90;60.00
48579;DHT22;34357;51.948;6.132;2023-05-15T13:01:08;19.10;60.80
48579;DHT22;34357;51.948;6.132;2023-05-15T13:03:33;19.50;61.20
48579;DHT22;34357;51.948;6.132;2023-05-15T13:06:01;19.40;59.90
48579;DHT22;34357;51.948;6.132;2023-05-15T13:08:28;19.60;61.10
48579;DHT22;34357;51.948;6.132;2023-05-15T13:10:58;19.70;59.10
48579;DHT22;34357;51.948;6.132;2023-05-15T13:13:41;19.60;59.20
48579;DHT22;34357;51.948;6.132;2023-05-15T13:16:17;19.40;58.50
48579;DHT22;34357;51.948;6.132;2023-05-15T13:18:43;19.30;59.90
48579;DHT22;34357;51.948;6.132;2023-05-15T13:21:09;19.20;60.60
48579;DHT22;34357;51.948;6.132;2023-05-15T13:23:34;19.10;61.60
48579;DHT22;34357;51.948;6.132;2023-05-15T13:26:00;19.00;60.40
48579;DHT22;34357;51.948;6.132;2023-05-15T13:28:26;18.80;62.70
48579;DHT22;34357;51.948;6.132;2023-05-15T13:30:51;18.70;63.50
48579;DHT22;34357;51.948;6.132;2023-05-15T13:33:17;19.00;62.40
48579;DHT22;34357;51.948;6.132;2023-05-15T13:35:43;18.80;64.00
48579;DHT22;34357;51.948;6.132;2023-05-15T13:38:09;18.80;63.40
48579;DHT22;34357;51.948;6.132;2023-05-15T13:40:36;18.90;61.80
48579;DHT22;34357;51.948;6.132;2023-05-15T13:43:02;18.80;63.20
48579;DHT22;34357;51.948;6.132;2023-05-15T13:45:27;18.80;61.80
48579;DHT22;34357;51.948;6.132;2023-05-15T13:47:54;18.80;62.80
48579;DHT22;34357;51.948;6.132;2023-05-15T13:50:20;19.10;63.40
48579;DHT22;34357;51.948;6.132;2023-05-15T13:52:46;19.40;62.10
48579;DHT22;34357;51.948;6.132;2023-05-15T13:55:11;19.50;61.10
48579;DHT22;34357;51.948;6.132;2023-05-15T13:57:39;19.30;61.60
48579;DHT22;34357;51.948;6.132;2023-05-15T14:00:07;19.40;60.60
48579;DHT22;34357;51.948;6.132;2023-05-15T14:02:35;19.10;60.30
48579;DHT22;34357;51.948;6.132;2023-05-15T14:05:00;18.80;62.30
48579;DHT22;34357;51.948;6.132;2023-05-15T14:07:26;18.90;62.10
48579;DHT22;34357;51.948;6.132;2023-05-15T14:09:52;18.90;61.60
48579;DHT22;34357;51.948;6.132;2023-05-15T14:12:17;18.70;63.10
48579;DHT22;34357;51.948;6.132;2023-05-15T14:14:46;18.80;63.50
48579;DHT22;34357;51.948;6.132;2023-05-15T14:17:13;18.90;61.30
48579;DHT22;34357;51.948;6.132;2023-05-15T14:19:40;18.90;63.20
48579;DHT22;34357;51.948;6.132;2023-05-15T14:22:05;19.00;62.90
48579;DHT22;34357;51.948;6.132;2023-05-15T14:24:31;19.40;63.20
48579;DHT22;34357;51.948;6.132;2023-05-15T14:26:57;19.80;60.10
48579;DHT22;34357;51.948;6.132;2023-05-15T14:29:23;20.00;59.90
48579;DHT22;34357;51.948;6.132;2023-05-15T14:31:49;20.00;58.10
48579;DHT22;34357;51.948;6.132;2023-05-15T14:34:15;19.70;59.80
48579;DHT22;34357;51.948;6.132;2023-05-15T14:36:41;19.50;60.60
48579;DHT22;34357;51.948;6.132;2023-05-15T14:39:07;19.60;59.60
48579;DHT22;34357;51.948;6.132;2023-05-15T14:41:32;19.50;58.60
48579;DHT22;34357;51.948;6.132;2023-05-15T14:43:58;19.30;59.40
48579;DHT22;34357;51.948;6.132;2023-05-15T14:46:24;19.30;61.20
48579;DHT22;34357;51.948;6.132;2023-05-15T14:48:50;19.70;60.20
48579;DHT22;34357;51.948;6.132;2023-05-15T14:51:15;19.90;58.30
48579;DHT22;34357;51.948;6.132;2023-05-15T14:53:42;20.30;57.50
48579;DHT22;34357;51.948;6.132;2023-05-15T14:56:09;20.30;58.70
48579;DHT22;34357;51.948;6.132;2023-05-15T14:58:34;20.40;58.10
48579;DHT22;34357;51.948;6.132;2023-05-15T15:01:01;20.40;58.00
48579;DHT22;34357;51.948;6.132;2023-05-15T15:03:28;19.90;57.20
48579;DHT22;34357;51.948;6.132;2023-05-15T15:05:54;19.90;57.40
48579;DHT22;34357;51.948;6.132;2023-05-15T15:08:20;19.50;59.70
48579;DHT22;34357;51.948;6.132;2023-05-15T15:10:45;19.50;59.90
48579;DHT22;34357;51.948;6.132;2023-05-15T15:13:11;19.50;58.10
48579;DHT22;34357;51.948;6.132;2023-05-15T15:15:39;19.50;58.20
48579;DHT22;34357;51.948;6.132;2023-05-15T15:18:05;19.60;58.10
48579;DHT22;34357;51.948;6.132;2023-05-15T15:20:32;19.70;58.50
48579;DHT22;34357;51.948;6.132;2023-05-15T15:22:57;19.60;56.60
48579;DHT22;34357;51.948;6.132;2023-05-15T15:25:23;19.50;57.20
48579;DHT22;34357;51.948;6.132;2023-05-15T15:27:49;19.20;58.30
48579;DHT22;34357;51.948;6.132;2023-05-15T15:30:15;19.00;58.60
48579;DHT22;34357;51.948;6.132;2023-05-15T15:32:42;18.90;58.60
48579;DHT22;34357;51.948;6.132;2023-05-15T15:35:08;18.80;59.70
48579;DHT22;34357;51.948;6.132;2023-05-15T15:37:34;18.80;60.80
48579;DHT22;34357;51.948;6.132;2023-05-15T15:40:02;18.80;60.00
48579;DHT22;34357;51.948;6.132;2023-05-15T15:42:30;18.90;61.10
48579;DHT22;34357;51.948;6.132;2023-05-15T15:44:57;18.90;61.40
48579;DHT22;34357;51.948;6.132;2023-05-15T15:47:23;18.60;60.20
48579;DHT22;34357;51.948;6.132;2023-05-15T15:49:49;18.40;61.00
48579;DHT22;34357;51.948;6.132;2023-05-15T15:52:15;18.40;62.90
48579;DHT22;34357;51.948;6.132;2023-05-15T15:54:41;18.20;63.10
48579;DHT22;34357;51.948;6.132;2023-05-15T15:57:15;18.30;62.90
48579;DHT22;34357;51.948;6.132;2023-05-15T15:59:41;17.90;64.10